createdAt,value
2019-04-23T00:01:36.752Z,95300.00
2019-04-23T00:04:07.205Z,95294.61
2019-04-23T00:06:33.810Z,95290.22
2019-04-23T00:09:07.300Z,95282.95
2019-04-23T00:14:01.274Z,95288.34
2019-04-23T00:16:30.204Z,95285.70
2019-04-23T00:18:49.404Z,95270.86
2019-04-23T00:21:28.409Z,95270.56
2019-04-23T00:24:03.082Z,95268.28
2019-04-23T00:26:30.648Z,95265.16
2019-04-23T00:31:38.870Z,95255.92
2019-04-23T00:33:46.157Z,95261.03
2019-04-23T00:36:23.058Z,95252.13
2019-04-23T00:38:46.852Z,95247.51
2019-04-23T00:41:10.638Z,95247.73
2019-04-23T00:43:43.130Z,95232.69
2019-04-23T00:46:06.555Z,95232.87
2019-04-23T00:48:44.069Z,95212.75
2019-04-23T00:50:58.581Z,95220.85
2019-04-23T00:53:43.959Z,95212.09
2019-04-23T00:56:23.605Z,95215.70
2019-04-23T00:58:38.222Z,95221.16
2019-04-23T01:00:57.833Z,95220.72
2019-04-23T01:03:47.302Z,95206.21
2019-04-23T01:05:53.957Z,95209.86
2019-04-23T01:08:24.900Z,95202.97
2019-04-23T01:10:56.472Z,95194.87
2019-04-23T01:13:36.717Z,95191.09
2019-04-23T01:15:56.293Z,95187.30
2019-04-23T01:18:32.666Z,95199.55
2019-04-23T01:20:52.713Z,95188.54
2019-04-23T01:23:05.642Z,95174.81
2019-04-23T01:25:42.621Z,95186.39
2019-04-23T01:28:33.590Z,95184.76
2019-04-23T01:31:02.495Z,95173.23
2019-04-23T01:33:32.932Z,95178.17
2019-04-23T01:38:29.326Z,95171.31
2019-04-23T01:40:46.118Z,95154.82
2019-04-23T01:43:16.319Z,95165.33
2019-04-23T01:45:35.859Z,95149.00
2019-04-23T01:48:13.654Z,95141.58
2019-04-23T01:53:16.312Z,95125.66
2019-04-23T01:55:42.151Z,95136.75
2019-04-23T01:58:35.003Z,95121.92
2019-04-23T02:00:43.702Z,95124.56
2019-04-23T02:05:38.525Z,95120.44
2019-04-23T02:08:05.164Z,95121.45
2019-04-23T02:15:37.425Z,95115.33
2019-04-23T02:18:08.874Z,95112.86
2019-04-23T02:20:36.012Z,95116.30
2019-04-23T02:23:28.106Z,95107.23
2019-04-23T02:33:29.881Z,95096.49
2019-04-23T02:40:58.892Z,95094.70
2019-04-23T02:43:14.414Z,95083.86
2019-04-23T02:45:48.384Z,95086.72
2019-04-23T02:50:39.772Z,95075.70
2019-04-23T02:53:20.242Z,95073.89
2019-04-23T02:55:43.337Z,95064.96
2019-04-23T02:58:09.998Z,95058.36
2019-04-23T03:00:40.155Z,95060.70
2019-04-23T03:03:28.161Z,95049.96
2019-04-23T03:05:45.556Z,95054.59
2019-04-23T03:08:00.416Z,95057.56
2019-04-23T03:10:32.279Z,95059.06
2019-04-23T03:13:09.121Z,95044.55
2019-04-23T03:15:57.908Z,95050.14
2019-04-23T03:21:05.778Z,95047.86
2019-04-23T03:23:34.516Z,95051.64
2019-04-23T03:26:09.122Z,95048.52
2019-04-23T03:32:45.781Z,95048.04
2019-04-23T03:38:38.004Z,95039.48
2019-04-23T03:41:09.048Z,95028.12
2019-04-23T03:46:12.421Z,95031.44
2019-04-23T03:50:38.866Z,95034.73
2019-04-23T03:53:24.404Z,95028.66
2019-04-23T03:58:18.770Z,95023.75
2019-04-23T04:03:27.445Z,95027.19
2019-04-23T04:10:44.274Z,95018.00
2019-04-23T04:13:13.766Z,95010.73
2019-04-23T04:18:23.671Z,95009.59
2019-04-23T04:23:16.931Z,95011.88
2019-04-23T04:28:11.943Z,95001.14
2019-04-23T04:30:43.129Z,95003.55
2019-04-23T04:33:31.968Z,94999.59
2019-04-23T04:35:47.391Z,94994.45
2019-04-23T04:38:38.528Z,94985.91
2019-04-23T04:41:00.091Z,94983.59
2019-04-23T04:45:52.123Z,94982.09
2019-04-23T04:48:13.686Z,94976.31
2019-04-23T04:51:00.053Z,94968.84
2019-04-23T04:58:07.231Z,94964.49
2019-04-23T05:06:01.436Z,94957.28
2019-04-23T05:08:11.454Z,94945.66
2019-04-23T05:13:21.763Z,94940.02
2019-04-23T05:15:42.990Z,94946.24
2019-04-23T05:20:50.695Z,94949.47
2019-04-23T05:25:40.105Z,94942.95
2019-04-23T05:28:26.754Z,94948.55
2019-04-23T05:30:38.414Z,94938.44
2019-04-23T05:33:07.760Z,94949.77
2019-04-23T05:35:56.104Z,94935.36
2019-04-23T05:40:37.249Z,94940.54
2019-04-23T05:42:58.740Z,94948.40
2019-04-23T05:45:21.712Z,94935.34
2019-04-23T05:47:59.328Z,94942.37
2019-04-23T05:50:30.230Z,94941.50
2019-04-23T05:52:57.733Z,94942.94
2019-04-23T05:55:13.245Z,94948.67
2019-04-23T05:57:45.707Z,94933.77
2019-04-23T06:00:21.310Z,94932.56
2019-04-23T06:05:08.874Z,94935.78
2019-04-23T06:10:04.869Z,94931.73
2019-04-23T06:12:31.464Z,94934.34
2019-04-23T06:17:27.453Z,94925.32
2019-04-23T06:20:03.089Z,94918.67
2019-04-23T06:22:34.687Z,94934.14
2019-04-23T06:25:00.335Z,94925.84
2019-04-23T06:30:04.515Z,94921.11
2019-04-23T06:32:22.761Z,94926.81
2019-04-23T06:34:47.323Z,94938.80
2019-04-23T06:37:18.344Z,94927.02
2019-04-23T06:39:41.290Z,94934.56
2019-04-23T06:42:08.115Z,94920.47
2019-04-23T06:44:37.263Z,94930.17
2019-04-23T06:47:06.807Z,94933.86
2019-04-23T06:49:47.322Z,94932.45
2019-04-23T06:57:14.658Z,94911.70
2019-04-23T06:59:33.559Z,94910.30
2019-04-23T07:04:28.871Z,94918.28
2019-04-23T07:07:19.151Z,94924.42
2019-04-23T07:09:15.247Z,94910.60
2019-04-23T07:11:48.212Z,94925.01
2019-04-23T07:14:12.648Z,94921.58
2019-04-23T07:16:46.296Z,94930.06
2019-04-23T07:19:34.176Z,94935.27
2019-04-23T07:21:41.746Z,94940.06
2019-04-23T07:24:13.409Z,94936.88
2019-04-23T07:29:08.097Z,94933.98
2019-04-23T07:36:34.238Z,94937.50
2019-04-23T07:41:59.391Z,94925.52
2019-04-23T07:44:28.264Z,94938.59
2019-04-23T07:47:03.058Z,94935.41
2019-04-23T07:49:27.358Z,94940.55
2019-04-23T07:51:59.119Z,94942.49
2019-04-23T07:54:22.856Z,94941.31
2019-04-23T07:56:58.559Z,94937.86
2019-04-23T07:59:21.074Z,94942.78
2019-04-23T08:01:39.231Z,94948.48
2019-04-23T08:04:08.961Z,94914.83
2019-04-23T08:06:40.488Z,94944.64
2019-04-23T08:09:08.761Z,94941.17
2019-04-23T08:11:49.410Z,94940.84
2019-04-23T08:14:06.530Z,94955.84
2019-04-23T08:18:57.794Z,94957.63
2019-04-23T08:21:25.356Z,94951.60
2019-04-23T08:24:01.890Z,94954.72
2019-04-23T08:29:15.506Z,94959.81
2019-04-23T08:31:43.816Z,94968.50
2019-04-23T08:36:42.372Z,94956.42
2019-04-23T08:39:12.475Z,94965.53
2019-04-23T08:41:46.034Z,94957.77
2019-04-23T08:44:15.348Z,94963.39
2019-04-23T08:49:36.101Z,94957.58
2019-04-23T08:54:46.777Z,94968.91
2019-04-23T08:57:02.756Z,94953.41
2019-04-23T08:59:33.198Z,94945.45
2019-04-23T09:02:07.668Z,94955.95
2019-04-23T09:04:24.018Z,94940.31
2019-04-23T09:06:53.335Z,94929.08
2019-04-23T09:09:20.061Z,94943.64
2019-04-23T09:14:05.195Z,94937.16
2019-04-23T09:16:44.375Z,94932.69
2019-04-23T09:19:16.136Z,94932.06
2019-04-23T09:21:40.559Z,94936.62
2019-04-23T09:24:03.746Z,94934.25
2019-04-23T09:26:33.117Z,94924.95
2019-04-23T09:29:19.104Z,94922.45
2019-04-23T09:34:18.724Z,94927.63
2019-04-23T09:36:57.942Z,94924.86
2019-04-23T09:39:27.543Z,94930.52
2019-04-23T09:42:02.276Z,94920.83
2019-04-23T09:47:21.311Z,94910.55
2019-04-23T09:49:50.196Z,94902.61
2019-04-23T09:52:23.678Z,94905.78
2019-04-23T09:54:47.701Z,94909.14
2019-04-23T09:57:10.583Z,94914.91
2019-04-23T09:59:45.218Z,94912.53
2019-04-23T10:02:04.563Z,94904.47
2019-04-23T10:04:23.218Z,94902.80
2019-04-23T10:06:49.439Z,94913.67
2019-04-23T10:09:10.674Z,94903.11
2019-04-23T10:11:37.478Z,94911.02
2019-04-23T10:14:03.996Z,94921.90
2019-04-23T10:16:34.113Z,94903.77
2019-04-23T10:19:00.673Z,94898.95
2019-04-23T10:21:26.706Z,94893.67
2019-04-23T10:23:52.799Z,94886.98
2019-04-23T10:26:19.830Z,94886.19
2019-04-23T10:28:49.677Z,94883.86
2019-04-23T10:31:16.727Z,94878.92
2019-04-23T10:33:44.033Z,94874.62
2019-04-23T10:36:14.943Z,94877.06
2019-04-23T10:38:41.666Z,94864.64
2019-04-23T10:41:06.720Z,94873.34
2019-04-23T10:43:37.892Z,94860.67
2019-04-23T10:46:20.418Z,94862.50
2019-04-23T10:49:11.315Z,94873.06
2019-04-23T10:51:33.796Z,94868.58
2019-04-23T10:54:25.108Z,94850.31
2019-04-23T10:58:58.915Z,94863.80
2019-04-23T11:01:32.083Z,94861.36
2019-04-23T11:04:23.094Z,94868.33
2019-04-23T11:06:42.778Z,94855.42
2019-04-23T11:09:11.392Z,94858.06
2019-04-23T11:11:36.199Z,94860.77
2019-04-23T11:16:50.718Z,94849.81
2019-04-23T11:19:15.631Z,94848.06
2019-04-23T11:21:32.798Z,94848.78
2019-04-23T11:24:02.519Z,94843.25
2019-04-23T11:26:29.881Z,94862.86
2019-04-23T11:28:52.068Z,94853.45
2019-04-23T11:31:31.598Z,94858.12
2019-04-23T11:34:01.085Z,94846.51
2019-04-23T11:41:25.020Z,94852.84
2019-04-23T11:43:55.653Z,94849.14
2019-04-23T11:48:50.805Z,94830.20
2019-04-23T11:56:16.106Z,94839.92
2019-04-23T11:58:39.281Z,94844.80
2019-04-23T12:01:44.796Z,94846.97
2019-04-23T12:04:13.539Z,94846.44
2019-04-23T12:06:30.136Z,94833.61
2019-04-23T12:09:09.665Z,94846.16
2019-04-23T12:17:59.036Z,94847.53
2019-04-23T12:22:01.457Z,94846.84
2019-04-23T12:24:42.083Z,94859.66
2019-04-23T12:29:29.274Z,94850.38
2019-04-23T12:32:30.909Z,94836.08
2019-04-23T12:34:49.464Z,94840.84
2019-04-23T12:37:12.114Z,94845.58
2019-04-23T12:39:41.791Z,94837.84
2019-04-23T12:42:25.458Z,94843.43
2019-04-23T12:44:39.296Z,94840.77
2019-04-23T12:52:12.080Z,94834.30
2019-04-23T12:54:51.736Z,94821.42
2019-04-23T12:57:14.770Z,94825.72
2019-04-23T12:59:36.778Z,94818.33
2019-04-23T13:02:08.227Z,94827.22
2019-04-23T13:04:32.463Z,94827.97
2019-04-23T13:07:00.421Z,94814.38
2019-04-23T13:12:10.391Z,94806.09
2019-04-23T13:14:46.741Z,94810.57
2019-04-23T13:19:40.857Z,94790.14
2019-04-23T13:22:16.414Z,94810.53
2019-04-23T13:24:43.708Z,94804.88
2019-04-23T13:27:23.949Z,94791.67
2019-04-23T13:29:51.219Z,94790.13
2019-04-23T13:32:15.260Z,94791.11
2019-04-23T13:34:50.607Z,94790.97
2019-04-23T13:37:21.629Z,94789.71
2019-04-23T13:39:39.828Z,94796.77
2019-04-23T13:42:15.909Z,94786.00
2019-04-23T13:44:42.443Z,94787.67
2019-04-23T13:47:13.327Z,94776.51
2019-04-23T13:49:37.660Z,94792.34
2019-04-23T13:52:19.100Z,94777.92
2019-04-23T13:54:56.555Z,94788.52
2019-04-23T13:59:48.585Z,94772.11
2019-04-23T14:02:07.688Z,94783.27
2019-04-23T14:04:45.038Z,94781.90
2019-04-23T14:07:15.044Z,94770.98
2019-04-23T14:09:48.917Z,94769.29
2019-04-23T14:12:08.307Z,94769.80
2019-04-23T14:17:18.141Z,94750.00
2019-04-23T14:19:28.376Z,94770.16
2019-04-23T14:22:03.067Z,94770.27
2019-04-23T14:24:38.231Z,94770.86
2019-04-23T14:26:59.611Z,94769.21
2019-04-23T14:29:34.111Z,94764.97
2019-04-23T14:32:05.055Z,94771.98
2019-04-23T14:34:24.952Z,94763.86
2019-04-23T14:36:57.526Z,94751.83
2019-04-23T14:39:24.441Z,94750.75
2019-04-23T14:41:56.682Z,94751.31
2019-04-23T14:46:58.162Z,94757.41
2019-04-23T14:49:19.309Z,94754.37
2019-04-23T14:54:22.912Z,94768.41
2019-04-23T14:56:45.379Z,94750.44
2019-04-23T15:01:47.750Z,94759.78
2019-04-23T15:04:24.174Z,94754.11
2019-04-23T15:06:43.297Z,94759.63
2019-04-23T15:09:19.221Z,94749.90
2019-04-23T15:14:06.081Z,94766.02
2019-04-23T15:16:39.162Z,94775.31
2019-04-23T15:19:11.696Z,94773.13
2019-04-23T15:22:08.404Z,94768.28
2019-04-23T15:24:32.895Z,94762.06
2019-04-23T15:29:09.833Z,94756.41
2019-04-23T15:31:58.920Z,94763.41
2019-04-23T15:37:14.220Z,94779.50
2019-04-23T15:39:21.394Z,94764.03
2019-04-23T15:44:14.898Z,94770.84
2019-04-23T15:46:58.104Z,94771.63
2019-04-23T15:49:21.347Z,94772.02
2019-04-23T15:54:19.514Z,94780.05
2019-04-23T15:56:40.906Z,94781.13
2019-04-23T15:59:23.646Z,94780.58
2019-04-23T16:01:37.232Z,94794.38
2019-04-23T16:03:38.282Z,94785.86
2019-04-23T16:06:06.496Z,94778.88
2019-04-23T16:11:41.186Z,94792.16
2019-04-23T16:14:13.441Z,94779.00
2019-04-23T16:16:29.885Z,94780.91
2019-04-23T16:19:17.563Z,94785.28
2019-04-23T16:21:58.652Z,94790.34
2019-04-23T16:24:19.417Z,94795.76
2019-04-23T16:26:55.351Z,94790.70
2019-04-23T16:31:47.799Z,94768.20
2019-04-23T16:34:20.938Z,94780.20
2019-04-23T16:36:54.765Z,94780.20
2019-04-23T16:39:10.274Z,94787.98
2019-04-23T16:41:41.796Z,94788.30
2019-04-23T16:44:11.372Z,94787.95
2019-04-23T16:46:34.004Z,94780.04
2019-04-23T16:54:01.697Z,94784.48
2019-04-23T16:56:42.096Z,94780.24
2019-04-23T17:01:21.364Z,94782.47
2019-04-23T17:03:57.894Z,94776.41
2019-04-23T17:06:27.597Z,94774.21
2019-04-23T17:08:57.590Z,94779.20
2019-04-23T17:11:20.448Z,94782.02
2019-04-23T17:13:51.671Z,94781.27
2019-04-23T17:18:48.768Z,94793.60
2019-04-23T17:21:11.726Z,94793.61
2019-04-23T17:26:13.667Z,94806.00
2019-04-23T17:28:38.352Z,94797.41
2019-04-23T17:31:28.164Z,94799.45
2019-04-23T17:33:41.728Z,94793.89
2019-04-23T17:36:22.844Z,94800.65
2019-04-23T17:38:55.064Z,94803.94
2019-04-23T17:41:22.049Z,94799.34
2019-04-23T17:44:00.011Z,94791.52
2019-04-23T17:46:23.792Z,94798.44
2019-04-23T17:48:55.390Z,94796.14
2019-04-23T17:51:19.694Z,94801.69
2019-04-23T17:53:49.527Z,94781.36
2019-04-23T17:58:43.515Z,94789.73
2019-04-23T18:04:02.334Z,94789.39
2019-04-23T18:08:43.206Z,94799.48
2019-04-23T18:13:43.304Z,94796.02
2019-04-23T18:16:09.512Z,94800.86
2019-04-23T18:18:39.133Z,94798.66
2019-04-23T18:21:14.247Z,94801.38
2019-04-23T18:23:32.670Z,94803.69
2019-04-23T18:26:04.115Z,94804.20
2019-04-23T18:28:29.333Z,94805.58
2019-04-23T18:31:09.602Z,94825.28
2019-04-23T18:36:05.288Z,94812.84
2019-04-23T18:38:41.581Z,94807.95
2019-04-23T18:43:51.176Z,94805.09
2019-04-23T18:46:13.855Z,94813.60
2019-04-23T18:53:43.469Z,94812.41
2019-04-23T18:56:22.185Z,94814.05
2019-04-23T18:58:50.357Z,94816.09
2019-04-23T19:01:05.371Z,94810.61
2019-04-23T19:03:57.683Z,94804.27
2019-04-23T19:06:23.452Z,94808.98
2019-04-23T19:14:14.671Z,94798.17
2019-04-23T19:16:41.879Z,94804.91
2019-04-23T19:19:01.472Z,94801.55
2019-04-23T19:21:57.547Z,94811.31
2019-04-23T19:23:54.969Z,94804.27
2019-04-23T19:26:47.268Z,94811.22
2019-04-23T19:28:55.917Z,94810.39
2019-04-23T19:31:50.632Z,94808.77
2019-04-23T19:34:35.729Z,94823.34
2019-04-23T19:36:54.758Z,94814.47
2019-04-23T19:39:17.634Z,94825.06
2019-04-23T19:44:08.417Z,94819.57
2019-04-23T19:46:48.934Z,94816.50
2019-04-23T19:51:45.497Z,94809.27
2019-04-23T19:54:16.698Z,94804.38
2019-04-23T19:56:39.662Z,94796.63
2019-04-23T19:59:01.815Z,94808.75
2019-04-23T20:01:53.323Z,94802.00
2019-04-23T20:04:09.392Z,94809.55
2019-04-23T20:11:29.699Z,94795.88
2019-04-23T20:18:52.371Z,94800.03
2019-04-23T20:21:13.244Z,94797.69
2019-04-23T20:29:03.289Z,94798.19
2019-04-23T20:36:25.606Z,94799.69
2019-04-23T20:38:55.374Z,94789.30
2019-04-23T20:43:49.163Z,94795.38
2019-04-23T20:46:10.839Z,94788.17
2019-04-23T20:51:09.185Z,94792.53
2019-04-23T20:53:40.380Z,94795.45
2019-04-23T20:58:56.704Z,94798.39
2019-04-23T21:03:53.605Z,94785.45
2019-04-23T21:06:16.886Z,94789.81
2019-04-23T21:09:08.090Z,94783.59
2019-04-23T21:11:07.008Z,94777.67
2019-04-23T21:16:08.867Z,94777.67
2019-04-23T21:18:39.394Z,94778.27
2019-04-23T21:20:57.952Z,94774.80
2019-04-23T21:23:29.961Z,94774.69
2019-04-23T21:25:52.618Z,94783.02
2019-04-23T21:28:40.226Z,94784.04
2019-04-23T21:31:06.542Z,94787.08
2019-04-23T21:36:13.898Z,94796.03
2019-04-23T21:39:03.516Z,94794.91
2019-04-23T21:46:30.668Z,94799.76
2019-04-23T21:49:08.690Z,94784.39
2019-04-23T21:53:52.537Z,94787.56
2019-04-23T21:58:57.915Z,94786.23
2019-04-23T22:01:27.574Z,94782.88
2019-04-23T22:06:21.869Z,94780.36
2019-04-23T22:08:53.232Z,94779.34
2019-04-23T22:11:36.106Z,94783.41
2019-04-23T22:16:14.574Z,94778.42
2019-04-23T22:18:57.272Z,94777.42
2019-04-23T22:21:28.615Z,94776.50
2019-04-23T22:23:56.135Z,94780.47
2019-04-23T22:26:16.273Z,94773.55
2019-04-23T22:28:52.389Z,94770.58
2019-04-23T22:31:12.498Z,94770.77
2019-04-23T22:33:41.850Z,94774.94
2019-04-23T22:36:09.314Z,94768.33
2019-04-23T22:38:35.887Z,94773.52
2019-04-23T22:41:03.121Z,94771.89
2019-04-23T22:45:59.539Z,94787.42
2019-04-23T22:48:23.491Z,94779.28
2019-04-23T22:51:06.994Z,94787.41
2019-04-23T22:53:13.836Z,94775.19
2019-04-23T22:58:09.659Z,94777.72
2019-04-23T23:01:12.703Z,94786.31
2019-04-23T23:03:35.925Z,94782.54
2019-04-23T23:06:10.949Z,94785.18
2019-04-23T23:08:32.073Z,94787.22
2019-04-23T23:11:02.255Z,94788.41
2019-04-23T23:13:33.435Z,94780.87
2019-04-23T23:16:07.106Z,94781.89
2019-04-23T23:20:59.543Z,94780.22
2019-04-23T23:23:18.009Z,94775.95
2019-04-23T23:25:52.021Z,94785.39
2019-04-23T23:28:20.124Z,94774.19
2019-04-23T23:35:43.621Z,94776.14
2019-04-23T23:38:16.685Z,94776.63
2019-04-23T23:48:08.072Z,94781.09
2019-04-23T23:53:11.975Z,94788.22
2019-04-23T23:55:30.080Z,94787.31
2019-04-23T23:58:10.361Z,94783.55
